Time;durP1;ratioP1;P1;durP2;ratioP2;P2;SDS_P1;SDS_P2;PMS_P1;PMS_P2;Temp;Humidity;BMP_temperature;BMP_pressure;BME280_temperature;BME280_humidity;BME280_pressure;Samples;Min_cycle;Max_cycle;Signal;HPM_P1;HPM_P2
2023/06/29 00:01:07;;;;;;;4.30;2.92;;;;;;;19.54;99.33;99109.47;5151186;27;20050;-79
2023/06/29 00:03:52;;;;;;;4.45;2.75;;;;;;;19.49;99.89;99110.25;5136236;27;20063;-79
2023/06/29 00:06:36;;;;;;;5.45;2.70;;;;;;;19.23;100.00;99114.50;5151762;27;20038;-77
2023/06/29 00:09:24;;;;;;;2.90;2.55;;;;;;;19.76;99.86;99104.06;5136000;27;20091;-79
2023/06/29 00:12:08;;;;;;;5.00;3.22;;;;;;;19.45;100.00;99111.78;5152581;27;20050;-79
2023/06/29 00:14:52;;;;;;;4.55;3.10;;;;;;;19.58;100.00;99115.09;5152087;27;21410;-80
2023/06/29 00:17:36;;;;;;;5.70;2.67;;;;;;;19.77;99.60;99108.34;5136308;27;20096;-78
2023/06/29 00:20:20;;;;;;;2.65;2.45;;;;;;;20.02;98.56;99106.97;5151812;27;20042;-80
2023/06/29 00:23:04;;;;;;;2.83;2.42;;;;;;;19.79;99.43;99110.78;5133659;27;20575;-79
2023/06/29 00:25:48;;;;;;;7.68;2.80;;;;;;;19.68;99.56;99108.00;5135475;27;20049;-79
2023/06/29 00:28:32;;;;;;;7.13;3.28;;;;;;;19.80;99.14;99109.72;5148377;27;20049;-79
2023/06/29 00:31:18;;;;;;;4.97;2.60;;;;;;;19.94;98.33;99112.78;5135906;27;20539;-80
2023/06/29 00:34:02;;;;;;;4.38;2.50;;;;;;;19.93;97.88;99111.94;5151581;27;20057;-79
2023/06/29 00:36:46;;;;;;;3.03;2.30;;;;;;;20.07;97.43;99109.69;5151287;27;20566;-79
2023/06/29 00:39:31;;;;;;;2.95;2.65;;;;;;;19.68;98.15;99105.34;5136202;27;20057;-79
2023/06/29 00:42:15;;;;;;;2.83;2.30;;;;;;;20.03;96.99;99105.13;5135218;27;20091;-80
2023/06/29 00:44:59;;;;;;;4.50;2.35;;;;;;;20.27;96.34;99100.22;5151287;27;20045;-78
2023/06/29 00:47:44;;;;;;;3.85;2.47;;;;;;;19.57;97.58;99097.50;5151511;27;20460;-78
2023/06/29 00:50:28;;;;;;;6.25;2.45;;;;;;;19.72;98.01;99095.00;5150073;27;20029;-78
2023/06/29 00:53:13;;;;;;;6.32;2.60;;;;;;;19.66;97.92;99106.66;5132988;27;20087;-78
2023/06/29 00:55:59;;;;;;;3.63;2.35;;;;;;;19.72;97.80;99105.66;5149866;27;20617;-78
2023/06/29 00:58:43;;;;;;;6.43;2.92;;;;;;;19.90;97.77;99101.78;5151589;27;20167;-78
2023/06/29 01:01:27;;;;;;;4.72;2.50;;;;;;;19.93;98.03;99106.63;5148513;27;20102;-79
2023/06/29 01:04:24;;;;;;;5.40;2.80;;;;;;;19.51;98.64;99094.81;5150634;27;20087;-79
2023/06/29 01:07:22;;;;;;;4.38;2.70;;;;;;;19.93;98.02;99097.84;5150914;27;20087;-78
2023/06/29 01:10:09;;;;;;;2.85;2.55;;;;;;;19.89;97.83;99100.19;5150707;27;20034;-78
2023/06/29 01:12:56;;;;;;;5.30;2.38;;;;;;;20.14;96.90;99103.31;5149861;27;20053;-78
2023/06/29 01:15:41;;;;;;;2.97;2.40;;;;;;;20.08;96.80;99103.28;5150713;27;20038;-79
2023/06/29 01:18:27;;;;;;;4.35;2.53;;;;;;;20.05;96.69;99109.13;5133256;27;20042;-79
2023/06/29 01:21:13;;;;;;;2.80;2.53;;;;;;;20.06;96.99;99108.06;5133693;27;20083;-79
2023/06/29 01:24:00;;;;;;;3.55;2.50;;;;;;;19.90;96.86;99111.66;5151080;27;20058;-79
2023/06/29 01:26:47;;;;;;;2.60;2.20;;;;;;;19.80;96.56;99099.84;5134523;27;20118;-79
2023/06/29 01:29:31;;;;;;;5.22;2.63;;;;;;;19.97;96.73;99104.25;5134427;27;20499;-79
2023/06/29 01:32:15;;;;;;;6.30;2.20;;;;;;;19.92;96.69;99104.25;5150159;27;20037;-79
2023/06/29 01:35:00;;;;;;;3.67;2.28;;;;;;;19.91;96.45;99105.25;5150408;27;20095;-79
2023/06/29 01:37:58;;;;;;;2.65;2.33;;;;;;;19.87;95.84;99101.50;5137285;27;20041;-79
2023/06/29 01:40:45;;;;;;;4.82;2.40;;;;;;;19.60;96.69;99097.00;5139481;27;20069;-79
2023/06/29 01:43:30;;;;;;;5.32;2.30;;;;;;;19.69;96.58;99098.16;5153811;27;20060;-79
2023/06/29 01:46:15;;;;;;;2.58;1.95;;;;;;;19.73;96.47;99095.78;5153991;27;20037;-78
2023/06/29 01:49:01;;;;;;;2.30;2.10;;;;;;;19.66;96.35;99104.00;5152563;27;20050;-79
2023/06/29 01:51:45;;;;;;;3.63;1.90;;;;;;;19.51;96.40;99092.16;5139151;27;20038;-79
2023/06/29 01:54:29;;;;;;;3.80;1.98;;;;;;;19.62;96.66;99082.41;5155389;27;20038;-79
2023/06/29 01:57:13;;;;;;;3.85;1.90;;;;;;;19.30;97.33;99091.16;5154183;27;20103;-79
2023/06/29 01:59:57;;;;;;;3.70;1.90;;;;;;;19.10;97.46;99089.09;5153796;27;20345;-79
2023/06/29 02:02:41;;;;;;;1.80;1.70;;;;;;;19.47;96.32;99093.72;5136482;27;20457;-78
2023/06/29 02:05:25;;;;;;;2.05;1.77;;;;;;;18.76;97.85;99092.63;5153425;27;20090;-79
2023/06/29 02:08:09;;;;;;;3.35;2.00;;;;;;;18.72;97.68;99091.53;5139163;27;20060;-79
2023/06/29 02:10:53;;;;;;;2.85;1.90;;;;;;;18.98;96.96;99091.84;5138522;27;20038;-79
2023/06/29 02:13:37;;;;;;;3.53;2.10;;;;;;;18.69;97.04;99092.84;5152255;27;20103;-79
2023/06/29 02:16:21;;;;;;;2.38;1.80;;;;;;;19.01;96.25;99087.91;5137072;27;20044;-79
2023/06/29 02:19:05;;;;;;;3.25;2.05;;;;;;;18.86;95.63;99083.97;5151469;27;20041;-78
2023/06/29 02:21:50;;;;;;;2.00;1.65;;;;;;;18.97;95.04;99085.72;5153002;27;20034;-79
2023/06/29 02:24:34;;;;;;;3.65;1.90;;;;;;;18.59;95.87;99089.25;5152936;27;20053;-79
2023/06/29 02:27:19;;;;;;;3.28;2.13;;;;;;;18.79;95.29;99083.38;5153836;27;20050;-79
2023/06/29 02:30:03;;;;;;;2.67;2.10;;;;;;;18.60;94.81;99089.00;5152681;27;20068;-78
2023/06/29 02:32:47;;;;;;;3.75;2.05;;;;;;;18.69;94.14;99084.88;5150919;27;20092;-79
2023/06/29 02:35:31;;;;;;;2.72;1.92;;;;;;;18.25;94.91;99084.78;5137005;27;20403;-79
2023/06/29 02:38:15;;;;;;;2.22;1.85;;;;;;;18.42;94.65;99095.41;5153097;27;20046;-79
2023/06/29 02:40:59;;;;;;;3.28;2.00;;;;;;;18.59;93.79;99090.03;5138274;27;20104;-78
2023/06/29 02:43:43;;;;;;;3.47;2.20;;;;;;;18.33;94.31;99092.38;5154307;27;20396;-78
2023/06/29 02:46:27;;;;;;;4.38;2.03;;;;;;;18.33;93.99;99095.03;5138334;27;20122;-78
2023/06/29 02:49:11;;;;;;;2.20;2.00;;;;;;;18.47;93.27;99089.34;5151323;27;20034;-78
2023/06/29 02:51:56;;;;;;;2.72;2.03;;;;;;;17.95;94.14;99080.63;5137372;27;20038;-78
2023/06/29 02:54:40;;;;;;;4.55;2.10;;;;;;;18.02;93.96;99083.94;5138252;27;20037;-79
2023/06/29 02:57:24;;;;;;;4.22;2.10;;;;;;;18.02;94.12;99088.47;5153679;27;20510;-80
2023/06/29 03:00:08;;;;;;;3.47;1.80;;;;;;;18.15;93.93;99085.44;5153575;27;20115;-79
2023/06/29 03:02:52;;;;;;;5.75;2.33;;;;;;;18.37;93.31;99080.19;5137915;27;20088;-79
2023/06/29 03:05:36;;;;;;;2.20;2.00;;;;;;;18.34;93.14;99087.84;5135731;27;20151;-81
2023/06/29 03:08:21;;;;;;;3.15;1.90;;;;;;;17.95;94.46;99102.66;5152821;27;20061;-78
2023/06/29 03:11:05;;;;;;;2.38;2.10;;;;;;;18.07;94.35;99084.00;5152736;27;20134;-80
2023/06/29 03:13:50;;;;;;;2.30;2.10;;;;;;;18.04;93.87;99092.47;5150529;27;20087;-79
2023/06/29 03:16:35;;;;;;;8.15;2.28;;;;;;;17.85;94.47;99089.22;5151430;27;20041;-79
2023/06/29 03:19:19;;;;;;;10.15;2.78;;;;;;;17.91;94.46;99095.44;5132814;27;20502;-79
2023/06/29 03:22:03;;;;;;;4.55;2.30;;;;;;;17.74;94.83;99096.22;5152345;27;20053;-80
2023/06/29 03:24:48;;;;;;;2.75;2.20;;;;;;;17.75;94.58;99097.84;5152432;27;20122;-80
2023/06/29 03:27:32;;;;;;;4.97;2.30;;;;;;;17.78;94.78;99107.16;5135852;27;20556;-80
2023/06/29 03:30:16;;;;;;;3.42;2.40;;;;;;;17.69;95.25;99106.78;5149900;27;20544;-81
2023/06/29 03:33:01;;;;;;;4.32;2.10;;;;;;;17.66;95.76;99112.53;5152253;27;20048;-80
2023/06/29 03:35:45;;;;;;;5.60;2.63;;;;;;;17.60;95.92;99113.50;5152143;27;20052;-81
2023/06/29 03:38:29;;;;;;;3.78;2.65;;;;;;;17.61;95.91;99112.44;5135078;27;20049;-80
2023/06/29 03:41:13;;;;;;;5.50;2.63;;;;;;;17.65;95.45;99111.75;5151872;27;20084;-80
2023/06/29 03:43:57;;;;;;;2.95;2.38;;;;;;;17.50;94.99;99106.97;5150462;27;20091;-81
2023/06/29 03:46:41;;;;;;;4.13;2.42;;;;;;;17.58;94.29;99119.03;5151223;27;20054;-81
2023/06/29 03:49:25;;;;;;;7.65;2.33;;;;;;;17.45;94.78;99106.88;5137125;27;20038;-80
2023/06/29 03:52:08;;;;;;;3.25;2.30;;;;;;;17.62;93.80;99103.44;5135865;27;20099;-79
2023/06/29 03:54:53;;;;;;;3.65;2.58;;;;;;;17.60;92.98;99108.19;5152895;27;20045;-80
2023/06/29 03:57:36;;;;;;;3.97;2.45;;;;;;;17.59;92.79;99109.25;5133897;27;20514;-80
2023/06/29 04:00:21;;;;;;;4.57;2.55;;;;;;;17.41;93.56;99106.56;5149840;27;20067;-80
2023/06/29 04:03:05;;;;;;;2.92;2.47;;;;;;;17.32;93.01;99109.84;5135327;27;20045;-80
2023/06/29 04:05:49;;;;;;;4.68;2.75;;;;;;;17.38;92.37;99103.56;5151553;27;20033;-80
2023/06/29 04:08:33;;;;;;;3.42;2.60;;;;;;;17.40;90.78;99106.78;5150240;27;20038;-80
2023/06/29 04:11:17;;;;;;;2.55;2.10;;;;;;;17.51;88.86;99100.63;5136401;27;20123;-80
2023/06/29 04:14:01;;;;;;;5.25;2.25;;;;;;;17.63;86.88;99094.44;5135175;27;20067;-80
2023/06/29 04:16:45;;;;;;;3.03;2.33;;;;;;;17.63;85.85;99099.75;5136788;27;20045;-80
2023/06/29 04:19:30;;;;;;;6.10;1.98;;;;;;;17.59;84.57;99093.31;5152276;27;20375;-80
2023/06/29 04:22:14;;;;;;;2.15;1.85;;;;;;;17.71;83.65;99091.41;5150875;27;20046;-80
2023/06/29 04:24:58;;;;;;;5.85;2.30;;;;;;;17.54;83.90;99104.63;5135894;27;20079;-80
2023/06/29 04:27:42;;;;;;;3.83;2.08;;;;;;;17.62;83.52;99096.31;5135851;27;20050;-79
2023/06/29 04:30:27;;;;;;;3.33;2.40;;;;;;;17.69;83.21;99098.81;5150731;27;20065;-80
2023/06/29 04:33:11;;;;;;;3.95;1.90;;;;;;;17.49;84.06;99093.94;5148297;27;20494;-80
2023/06/29 04:35:55;;;;;;;4.15;2.10;;;;;;;17.72;82.97;99093.00;5135074;27;20122;-80
2023/06/29 04:38:39;;;;;;;5.38;2.13;;;;;;;17.71;82.26;99094.06;5150855;27;20065;-80
2023/06/29 04:41:31;;;;;;;2.20;2.00;;;;;;;17.76;82.31;99096.78;5151710;27;20046;-79
2023/06/29 04:44:15;;;;;;;3.85;2.10;;;;;;;17.81;81.80;99102.19;5151132;27;20540;-80
2023/06/29 04:47:00;;;;;;;3.50;1.83;;;;;;;17.45;82.82;99109.53;5149263;27;20503;-80
2023/06/29 04:49:46;;;;;;;4.78;2.13;;;;;;;17.56;82.16;99106.03;5133765;27;20549;-80
2023/06/29 04:52:36;;;;;;;2.70;2.25;;;;;;;17.50;82.51;99101.66;5150240;27;20034;-80
2023/06/29 04:55:21;;;;;;;4.43;2.40;;;;;;;17.71;81.68;99102.03;5136047;27;20098;-80
2023/06/29 04:58:05;;;;;;;5.53;2.65;;;;;;;17.53;82.06;99106.50;5151242;27;20616;-80
2023/06/29 05:00:49;;;;;;;3.58;2.05;;;;;;;17.61;81.59;99101.84;5150490;27;20053;-80
2023/06/29 05:03:33;;;;;;;6.75;2.22;;;;;;;17.16;82.74;99101.59;5136107;27;20429;-79
2023/06/29 05:06:17;;;;;;;3.97;2.15;;;;;;;17.42;81.79;99110.00;5151182;27;20064;-79
2023/06/29 05:09:01;;;;;;;3.00;1.98;;;;;;;17.28;81.72;99110.28;5150696;27;20046;-80
2023/06/29 05:11:45;;;;;;;5.43;2.63;;;;;;;17.40;81.82;99106.78;5148548;27;20119;-81
2023/06/29 05:14:28;;;;;;;5.97;1.98;;;;;;;17.38;82.03;99104.34;5150058;27;20042;-80
2023/06/29 05:17:13;;;;;;;4.90;2.10;;;;;;;17.06;82.29;99106.69;5150471;27;20038;-80
2023/06/29 05:19:57;;;;;;;6.28;2.03;;;;;;;17.18;82.47;99118.06;5147622;27;20118;-79
2023/06/29 05:22:41;;;;;;;3.00;1.90;;;;;;;17.38;82.15;99119.50;5135260;27;20133;-79
2023/06/29 05:25:25;;;;;;;4.72;2.05;;;;;;;17.59;81.43;99111.88;5150434;27;20499;-79
2023/06/29 05:28:09;;;;;;;6.10;1.80;;;;;;;17.62;80.77;99116.72;5150746;27;20033;-79
2023/06/29 05:30:53;;;;;;;4.43;1.90;;;;;;;17.77;80.64;99116.97;5149351;27;20114;-79
2023/06/29 05:33:37;;;;;;;6.70;2.00;;;;;;;17.55;81.55;99114.22;5148584;27;20447;-80
2023/06/29 05:36:21;;;;;;;2.42;1.70;;;;;;;17.45;82.83;99114.81;5150282;27;20520;-80
2023/06/29 05:39:05;;;;;;;3.45;1.92;;;;;;;17.65;84.14;99130.31;5150251;27;20075;-81
2023/06/29 05:41:49;;;;;;;4.47;2.00;;;;;;;17.59;85.21;99125.16;5149078;27;20041;-81
2023/06/29 05:44:33;;;;;;;4.78;1.98;;;;;;;17.59;85.83;99125.97;5146043;27;20545;-80
2023/06/29 05:47:18;;;;;;;5.35;2.15;;;;;;;17.19;86.30;99122.31;5148453;27;20042;-81
2023/06/29 05:50:04;;;;;;;4.40;2.10;;;;;;;17.25;86.34;99125.88;5150187;27;20416;-81
2023/06/29 05:52:48;;;;;;;2.70;2.10;;;;;;;17.37;86.20;99133.78;5134628;27;20046;-81
2023/06/29 05:55:32;;;;;;;4.90;2.33;;;;;;;17.59;84.87;99136.59;5148620;27;20091;-80
2023/06/29 05:58:16;;;;;;;4.75;2.40;;;;;;;17.72;84.23;99135.50;5148201;27;20087;-80
2023/06/29 06:01:01;;;;;;;3.05;1.90;;;;;;;17.50;83.92;99143.31;5144955;27;20042;-82
2023/06/29 06:03:45;;;;;;;5.63;2.00;;;;;;;17.72;83.22;99142.63;5146929;27;20042;-82
2023/06/29 06:06:30;;;;;;;3.30;1.90;;;;;;;17.63;83.95;99144.88;5148318;27;20510;-82
2023/06/29 06:09:14;;;;;;;3.05;2.08;;;;;;;17.92;82.62;99150.16;5133186;27;20081;-84
2023/06/29 06:11:59;;;;;;;3.17;2.15;;;;;;;18.12;81.56;99142.53;5151020;27;20092;-85
2023/06/29 06:14:43;;;;;;;5.72;2.30;;;;;;;17.55;82.14;99141.56;5134964;27;20041;-83
2023/06/29 06:17:27;;;;;;;3.50;1.95;;;;;;;17.89;80.55;99147.97;5134131;27;20065;-84
2023/06/29 06:20:11;;;;;;;3.55;2.20;;;;;;;18.17;79.72;99152.41;5144722;27;20130;-84
2023/06/29 06:22:55;;;;;;;3.55;2.63;;;;;;;18.37;79.35;99146.63;5133539;27;20131;-84
2023/06/29 06:25:40;;;;;;;5.25;1.90;;;;;;;18.25;78.42;99143.25;5148005;27;20171;-80
2023/06/29 06:28:24;;;;;;;2.60;1.73;;;;;;;18.18;78.11;99139.97;5137139;27;20063;-82
2023/06/29 06:31:09;;;;;;;5.53;2.00;;;;;;;18.04;77.47;99148.25;5153094;27;20095;-81
2023/06/29 06:33:57;;;;;;;4.00;1.70;;;;;;;18.66;76.90;99146.50;5151474;27;20168;-83
2023/06/29 06:36:41;;;;;;;3.47;1.63;;;;;;;18.62;76.36;99152.56;5135855;27;20077;-81
2023/06/29 06:39:26;;;;;;;4.78;1.73;;;;;;;19.04;75.32;99148.59;5136304;27;20095;-83
2023/06/29 06:42:10;;;;;;;6.85;1.80;;;;;;;19.48;74.95;99148.56;5153013;27;20091;-81
2023/06/29 06:44:57;;;;;;;2.38;1.77;;;;;;;19.46;74.32;99150.69;5151275;27;20126;-87
2023/06/29 06:47:41;;;;;;;7.03;2.00;;;;;;;19.31;74.87;99158.50;5138546;27;20041;-85
2023/06/29 06:50:25;;;;;;;2.75;1.70;;;;;;;19.24;74.71;99156.81;5152528;27;20073;-89
2023/06/29 06:53:09;;;;;;;2.53;1.70;;;;;;;19.32;74.44;99160.09;5149801;27;20064;-90
2023/06/29 06:55:56;;;;;;;3.90;2.00;;;;;;;19.67;74.92;99156.19;5143096;27;20037;-90
2023/06/29 06:58:41;;;;;;;2.90;1.80;;;;;;;19.91;74.32;99156.69;5157302;27;20038;-90
2023/06/29 07:01:26;;;;;;;3.70;1.73;;;;;;;20.14;73.91;99159.28;5153484;27;20046;-88
2023/06/29 07:04:11;;;;;;;2.80;1.80;;;;;;;20.49;73.91;99156.06;5154906;27;20056;-91
2023/06/29 07:06:55;;;;;;;5.55;2.08;;;;;;;20.69;74.17;99155.38;5158906;27;20064;-90
2023/06/29 07:09:39;;;;;;;4.15;1.90;;;;;;;20.74;72.45;99159.13;5142837;27;20087;-88
2023/06/29 07:12:23;;;;;;;3.40;1.95;;;;;;;20.37;73.20;99166.91;5141496;27;20040;-90
2023/06/29 07:15:07;;;;;;;4.13;1.75;;;;;;;20.95;73.30;99160.06;5142557;27;20471;-90
2023/06/29 07:17:51;;;;;;;6.50;2.60;;;;;;;20.52;73.68;99160.88;5141094;27;20454;-87
2023/06/29 07:20:35;;;;;;;4.57;2.10;;;;;;;20.83;70.92;99160.25;5161165;27;20083;-89
2023/06/29 07:23:19;;;;;;;3.88;1.90;;;;;;;21.15;70.51;99164.66;5140797;27;20049;-88
2023/06/29 07:26:04;;;;;;;3.47;2.15;;;;;;;20.43;69.92;99158.94;5140205;27;20657;-84
2023/06/29 07:28:48;;;;;;;4.10;1.80;;;;;;;20.62;70.09;99165.47;5140960;27;20073;-82
2023/06/29 07:31:34;;;;;;;4.47;2.13;;;;;;;20.91;70.73;99173.13;5141132;27;20054;-80
2023/06/29 07:34:23;;;;;;;4.50;2.25;;;;;;;20.59;69.75;99167.84;5156476;27;20053;-87
2023/06/29 07:37:07;;;;;;;6.00;2.10;;;;;;;20.37;69.67;99174.91;5137363;27;20076;-83
2023/06/29 07:39:51;;;;;;;6.60;2.50;;;;;;;20.97;68.80;99166.72;5138119;27;20037;-83
2023/06/29 07:42:35;;;;;;;2.80;1.98;;;;;;;20.82;70.18;99169.31;5151094;27;20041;-80
2023/06/29 07:45:19;;;;;;;4.50;2.10;;;;;;;20.82;69.22;99158.66;5147861;27;20099;-83
2023/06/29 07:48:04;;;;;;;5.57;2.38;;;;;;;20.19;69.52;99180.63;5135559;27;20138;-82
2023/06/29 07:50:48;;;;;;;3.90;1.90;;;;;;;20.12;69.21;99179.00;5151047;27;20029;-82
2023/06/29 07:53:32;;;;;;;3.75;1.92;;;;;;;20.41;69.83;99170.66;5149659;27;20441;-82
2023/06/29 07:56:16;;;;;;;2.75;2.22;;;;;;;20.72;68.73;99174.59;5151308;27;20046;-81
2023/06/29 07:59:00;;;;;;;5.20;2.15;;;;;;;20.48;71.82;99191.00;5134379;27;20050;-82
2023/06/29 08:01:46;;;;;;;4.60;2.75;;;;;;;20.26;70.63;99191.91;5151944;27;20479;-81
2023/06/29 08:04:31;;;;;;;4.05;2.30;;;;;;;20.36;70.18;99189.28;5149000;27;20103;-81
2023/06/29 08:07:15;;;;;;;5.97;2.22;;;;;;;20.25;69.20;99179.63;5135506;27;20395;-81
2023/06/29 08:09:59;;;;;;;5.72;2.40;;;;;;;20.32;69.08;99179.38;5149024;27;20490;-81
2023/06/29 08:12:43;;;;;;;3.53;2.20;;;;;;;20.96;69.85;99177.69;5149298;27;20038;-85
2023/06/29 08:15:27;;;;;;;3.30;1.98;;;;;;;20.83;67.16;99184.28;5136807;27;20543;-81
2023/06/29 08:18:11;;;;;;;3.83;2.33;;;;;;;20.68;66.71;99188.44;5134453;27;20087;-85
2023/06/29 08:20:55;;;;;;;4.15;2.03;;;;;;;20.79;67.74;99173.31;5136615;27;20077;-83
2023/06/29 08:23:39;;;;;;;3.20;2.30;;;;;;;21.38;66.58;99175.94;5137774;27;20033;-82
2023/06/29 08:26:24;;;;;;;4.18;2.20;;;;;;;20.91;66.72;99175.78;5152048;27;20087;-82
2023/06/29 08:29:09;;;;;;;3.83;2.10;;;;;;;20.71;66.75;99183.66;5137062;27;20126;-85
2023/06/29 08:31:52;;;;;;;4.50;1.88;;;;;;;20.57;67.25;99189.44;5151332;27;20448;-85
2023/06/29 08:34:37;;;;;;;2.95;1.90;;;;;;;20.83;67.00;99182.41;5152427;27;20045;-83
2023/06/29 08:37:20;;;;;;;7.60;2.10;;;;;;;20.83;68.05;99181.59;5150561;27;20057;-84
2023/06/29 08:40:06;;;;;;;6.75;2.10;;;;;;;21.31;67.97;99178.88;5136935;27;20103;-84
2023/06/29 08:42:50;;;;;;;7.15;2.22;;;;;;;21.40;67.60;99181.81;5151401;27;20113;-84
2023/06/29 08:45:34;;;;;;;5.78;2.10;;;;;;;21.21;67.42;99192.97;5135668;27;20037;-84
2023/06/29 08:48:19;;;;;;;3.33;2.15;;;;;;;21.45;67.63;99184.53;5135643;27;20094;-84
2023/06/29 08:51:07;;;;;;;4.45;2.20;;;;;;;21.73;66.79;99187.03;5136676;27;20045;-84
2023/06/29 08:53:52;;;;;;;8.48;2.15;;;;;;;21.74;68.01;99196.66;5151997;27;21945;-85
2023/06/29 08:56:36;;;;;;;9.32;2.30;;;;;;;21.45;66.48;99181.88;5134811;27;20042;-83
2023/06/29 08:59:21;;;;;;;5.97;2.22;;;;;;;22.24;66.67;99186.25;5136442;27;20118;-84
2023/06/29 09:02:06;;;;;;;4.57;2.65;;;;;;;21.75;65.08;99177.66;5151791;27;20451;-84
2023/06/29 09:04:50;;;;;;;6.07;2.40;;;;;;;21.44;65.10;99180.25;5150495;27;20065;-84
2023/06/29 09:07:34;;;;;;;6.22;2.25;;;;;;;21.79;65.13;99184.06;5135064;27;20410;-83
2023/06/29 09:10:18;;;;;;;3.22;1.95;;;;;;;21.61;66.44;99173.88;5151999;27;20079;-84
2023/06/29 09:13:02;;;;;;;8.05;2.45;;;;;;;21.34;64.48;99202.41;5151843;27;20037;-84
2023/06/29 09:15:48;;;;;;;4.32;2.35;;;;;;;21.85;63.85;99171.53;5135019;27;20172;-84
2023/06/29 09:18:34;;;;;;;8.65;2.42;;;;;;;20.78;62.91;99185.03;5151624;27;20396;-84
2023/06/29 09:21:21;;;;;;;5.13;2.10;;;;;;;21.62;62.82;99178.16;5135367;27;20083;-84
2023/06/29 09:24:08;;;;;;;2.25;1.92;;;;;;;21.86;63.17;99185.69;5136264;27;20042;-85
2023/06/29 09:26:54;;;;;;;3.42;2.10;;;;;;;21.87;59.20;99179.28;5150185;27;20095;-84
2023/06/29 09:29:38;;;;;;;3.60;2.33;;;;;;;22.12;59.65;99170.47;5151816;27;20060;-84
2023/06/29 09:32:22;;;;;;;5.88;2.40;;;;;;;22.37;60.21;99164.28;5151532;27;20423;-84
2023/06/29 09:35:08;;;;;;;3.22;2.03;;;;;;;22.86;59.86;99166.63;5136244;27;20510;-83
2023/06/29 09:37:52;;;;;;;5.32;2.15;;;;;;;23.08;57.27;99172.41;5149789;27;20058;-83
2023/06/29 09:41:06;;;;;;;3.65;2.25;;;;;;;23.74;55.89;99171.56;5150999;27;20046;-84
2023/06/29 09:43:52;;;;;;;4.03;2.03;;;;;;;23.08;56.18;99171.63;5140949;27;20468;-84
2023/06/29 09:46:40;;;;;;;3.92;2.25;;;;;;;24.35;55.81;99172.94;5135982;27;20071;-84
2023/06/29 09:49:25;;;;;;;3.97;2.15;;;;;;;24.46;56.45;99180.91;5135397;27;20438;-84
2023/06/29 09:52:09;;;;;;;4.10;2.03;;;;;;;24.02;57.00;99186.13;5135882;27;20050;-84
2023/06/29 09:54:57;;;;;;;3.22;2.13;;;;;;;23.92;57.13;99188.84;5136308;27;20506;-84
2023/06/29 09:57:50;;;;;;;4.30;2.28;;;;;;;23.44;58.20;99186.72;5151950;27;20182;-83
2023/06/29 10:00:35;;;;;;;6.15;2.40;;;;;;;23.30;59.35;99183.88;5153193;27;20057;-83
2023/06/29 10:03:19;;;;;;;3.88;2.60;;;;;;;23.41;60.12;99188.09;5154179;27;20502;-85
2023/06/29 10:06:11;;;;;;;5.93;2.60;;;;;;;22.46;61.66;99188.63;5154735;27;20104;-84
2023/06/29 10:08:58;;;;;;;5.55;2.80;;;;;;;22.17;61.81;99180.34;5154320;27;20037;-83
2023/06/29 10:11:44;;;;;;;6.28;2.28;;;;;;;22.37;61.40;99187.56;5139825;27;20079;-83
2023/06/29 10:14:28;;;;;;;4.22;2.42;;;;;;;23.07;60.99;99183.41;5154796;27;20038;-84
2023/06/29 10:17:25;;;;;;;2.55;2.00;;;;;;;23.14;56.85;99175.09;5154999;27;20045;-84
2023/06/29 10:20:11;;;;;;;4.22;2.38;;;;;;;23.90;56.52;99173.06;5153691;27;20547;-83
2023/06/29 10:22:59;;;;;;;3.58;2.25;;;;;;;23.91;56.97;99160.44;5139770;27;20391;-85
2023/06/29 10:25:48;;;;;;;4.75;2.28;;;;;;;22.85;56.05;99186.41;5154932;27;20388;-85
2023/06/29 10:28:34;;;;;;;3.97;2.40;;;;;;;23.68;55.21;99186.88;5139611;27;20111;-85
2023/06/29 10:31:19;;;;;;;2.22;2.03;;;;;;;23.96;55.41;99184.50;5139249;27;20502;-83
2023/06/29 10:34:07;;;;;;;8.63;2.60;;;;;;;23.93;56.25;99187.75;5154689;27;20126;-85
2023/06/29 10:36:52;;;;;;;5.65;2.50;;;;;;;24.27;55.88;99178.94;5154497;27;20041;-85
2023/06/29 10:39:43;;;;;;;8.95;2.45;;;;;;;24.34;55.03;99184.75;5154543;27;20057;-84
2023/06/29 10:42:28;;;;;;;4.88;2.28;;;;;;;24.08;56.01;99185.00;5138364;27;20425;-84
2023/06/29 10:45:18;;;;;;;5.15;2.30;;;;;;;24.37;55.86;99183.41;5154299;27;20545;-84
2023/06/29 10:48:03;;;;;;;3.92;2.30;;;;;;;24.14;55.51;99185.75;5154914;27;20050;-79
2023/06/29 10:50:50;;;;;;;3.65;2.45;;;;;;;23.63;56.38;99186.91;5153487;27;20086;-80
2023/06/29 10:53:34;;;;;;;7.78;2.45;;;;;;;22.43;58.53;99199.06;5138699;27;20057;-80
2023/06/29 10:56:32;;;;;;;4.93;2.83;;;;;;;22.85;58.75;99195.25;5153177;27;20076;-80
2023/06/29 10:59:17;;;;;;;3.72;2.25;;;;;;;23.14;59.06;99191.16;5138441;27;20038;-80
2023/06/29 11:02:03;;;;;;;7.78;2.20;;;;;;;23.68;57.06;99186.88;5154179;27;20613;-80
2023/06/29 11:04:47;;;;;;;6.78;2.50;;;;;;;23.64;57.07;99204.59;5153183;27;20034;-80
2023/06/29 11:07:32;;;;;;;5.22;2.25;;;;;;;23.10;56.39;99201.59;5153517;27;20041;-80
2023/06/29 11:10:21;;;;;;;4.72;1.95;;;;;;;22.59;56.57;99197.19;5138205;27;20046;-80
2023/06/29 11:13:09;;;;;;;5.68;2.15;;;;;;;22.42;56.57;99198.25;5138244;27;20468;-80
2023/06/29 11:15:56;;;;;;;7.93;2.40;;;;;;;22.38;56.85;99189.16;5138432;27;20113;-80
2023/06/29 11:18:47;;;;;;;5.18;1.98;;;;;;;23.14;56.26;99194.63;5138735;27;20045;-79
2023/06/29 11:21:32;;;;;;;6.43;2.70;;;;;;;22.74;55.30;99182.97;5152930;27;20083;-80
2023/06/29 11:24:18;;;;;;;3.67;2.15;;;;;;;22.89;55.26;99195.50;5136216;27;20403;-80
2023/06/29 11:27:03;;;;;;;3.78;2.38;;;;;;;22.32;55.46;99203.63;5153448;27;20041;-80
2023/06/29 11:29:54;;;;;;;6.07;2.05;;;;;;;23.15;54.62;99206.13;5138037;27;20045;-80
2023/06/29 11:32:41;;;;;;;5.00;2.30;;;;;;;23.44;54.24;99192.91;5152616;27;20123;-79
2023/06/29 11:35:25;;;;;;;3.85;2.22;;;;;;;23.51;54.10;99206.00;5137947;27;20041;-80
2023/06/29 11:38:09;;;;;;;5.95;2.38;;;;;;;23.32;51.90;99208.50;5152936;27;20103;-80
2023/06/29 11:41:04;;;;;;;3.58;1.83;;;;;;;22.59;53.86;99213.25;5136393;27;20083;-79
2023/06/29 11:43:50;;;;;;;3.90;2.28;;;;;;;23.77;53.66;99189.75;5136828;27;20445;-79
2023/06/29 11:46:35;;;;;;;3.17;1.90;;;;;;;25.10;53.26;99188.81;5138295;27;20041;-80
2023/06/29 11:49:19;;;;;;;6.20;2.55;;;;;;;25.27;52.20;99187.53;5153358;27;20168;-80
2023/06/29 11:52:06;;;;;;;5.65;2.70;;;;;;;24.35;54.22;99196.31;5151741;27;20077;-80
2023/06/29 11:54:50;;;;;;;5.95;2.60;;;;;;;24.07;54.40;99185.25;5153681;27;20514;-80
2023/06/29 11:57:37;;;;;;;6.40;2.80;;;;;;;24.56;54.11;99193.41;5137481;27;20083;-79
2023/06/29 12:00:21;;;;;;;4.63;2.53;;;;;;;23.70;54.79;99198.09;5151724;27;20103;-80
2023/06/29 12:03:07;;;;;;;4.05;2.20;;;;;;;24.12;53.27;99195.16;5152816;27;20058;-80
2023/06/29 12:05:51;;;;;;;4.05;2.70;;;;;;;23.22;54.02;99199.41;5152939;27;20034;-80
2023/06/29 12:08:39;;;;;;;7.30;2.90;;;;;;;23.25;52.98;99193.53;5136759;27;20158;-80
2023/06/29 12:11:25;;;;;;;5.85;2.70;;;;;;;22.59;53.19;99184.59;5150371;27;20123;-79
2023/06/29 12:14:10;;;;;;;2.03;1.80;;;;;;;22.42;52.34;99192.13;5137844;27;20037;-80
2023/06/29 12:16:57;;;;;;;2.58;2.00;;;;;;;22.80;51.46;99189.94;5152809;27;20050;-79
2023/06/29 12:19:41;;;;;;;4.10;2.00;;;;;;;23.48;50.70;99177.88;5134557;27;20545;-80
2023/06/29 12:22:25;;;;;;;4.28;2.00;;;;;;;24.37;49.42;99181.53;5152021;27;20111;-80
2023/06/29 12:25:12;;;;;;;3.50;2.20;;;;;;;24.88;49.48;99170.56;5153815;27;20068;-80
2023/06/29 12:27:56;;;;;;;5.60;2.20;;;;;;;24.65;49.53;99184.47;5153316;27;20099;-80
2023/06/29 12:30:41;;;;;;;5.13;2.42;;;;;;;25.09;49.29;99193.41;5151527;27;20061;-79
2023/06/29 12:33:25;;;;;;;5.65;2.58;;;;;;;25.20;48.37;99187.88;5151480;27;20436;-80
2023/06/29 12:36:09;;;;;;;7.00;2.90;;;;;;;25.45;49.14;99194.81;5136894;27;20099;-80
2023/06/29 12:38:53;;;;;;;5.97;2.35;;;;;;;25.99;48.45;99180.31;5135561;27;20121;-81
2023/06/29 12:41:37;;;;;;;10.80;2.50;;;;;;;26.10;47.10;99177.16;5152506;27;20448;-80
2023/06/29 12:44:20;;;;;;;5.07;1.88;;;;;;;25.87;47.07;99192.34;5135261;27;20441;-80
2023/06/29 12:47:05;;;;;;;3.75;2.20;;;;;;;24.87;45.00;99196.59;5136963;27;20121;-80
2023/06/29 12:49:50;;;;;;;2.80;1.88;;;;;;;26.20;43.58;99196.97;5151162;27;20042;-79
2023/06/29 12:52:35;;;;;;;2.15;1.80;;;;;;;25.98;44.30;99163.41;5135360;27;20497;-80
2023/06/29 12:55:19;;;;;;;4.93;2.30;;;;;;;25.94;47.07;99191.97;5148769;27;20091;-79
2023/06/29 12:58:02;;;;;;;3.08;2.00;;;;;;;25.93;44.81;99182.28;5150194;27;20460;-79